Ridott, Illinois
Current Conditions -  °F | °C
As of 4:55 AM on Friday 28 Nov 2014 (Local Time) from KFEP Reporting Station
Overcast Overcast  
Wind Chill:   Ceiling: 7000
Heat Index: 15°   Visibility: 10mi
Dew Point:   Wind: 8mph
Humidity: 75%   Direction: 140°SE
Pressure: 30.28"   Gusts: NA
Location:  42.3°N, 89.48°W
Report Text: KFEP 281055Z AUTO 14007KT 10SM BKN070 OVC090 M09/M13 A3028 RMK AO2 T10951132
Loading
Personal Weather Stations






























Interactive Weather Map New forecast layout! Learn more

10-Day Weather Forecast

Advertisements
Track Severe Weather on mobile